Dickey, North Dakota
Current Conditions -  °F | °C
As of 12:56 PM on Tuesday 27 Jan 2015 (Local Time) from KJMS Reporting Station
Clear Clear  
Wind Chill: 30°   Ceiling: Unl
Heat Index: 39°   Visibility: 10mi
Dew Point: 34°   Wind: 17mph
Humidity: 82%   Direction: 160°SSE
Pressure: 29.9"   Gusts: 24mph
Location:  46.54°N, 98.47°W
Report Text: KJMS 271856Z AUTO 16015G21KT 10SM CLR 04/01 A2990 RMK AO2 SLP145 T00390011
Loading
Personal Weather Stations






























Interactive Weather Map New forecast layout! Learn more

10-Day Weather Forecast

Advertisements
Track Severe Weather on mobile